Kansas City International Airport

Airport
ICAO code: 
KMCI
IATA Code: 
MCI
Summary
ICAO Region: 
NAM
Territory: 
Location: 
Kansas City, Missouri
Serving: 
Kansas City
Elevation: 
1026 ft
Coordinates: 
Aerial View: 
39° 17' 51.379" N, 94° 42' 50.06" W
Airport BS: 
Bird Strike
Airport LOS: 
Parallel Runway Operation
Metar
Observation
KMCI 030653Z 20007KT 10SM CLR 11/03 A2990 RMK AO2 SLP120 T01060028 $
Station
Kansas City, Kansas City International Airport
Date/Time
2021-12-03 06:53:00
Wind direction
200°
Wind speed
07 kts
Lowest cloud amount
n/a
Temperature
10.6°C
Dew point
2.8°C
Humidity
58%
Weather condition
n/a

International airport serving Kansas City, Missouri, USA.

Climatology

Humid “subtropical” climate (Köppen climate classification Cfa) - characterized by hot, humid summers and cool winters. Significant amounts of precipitation occur in all seasons in most areas. Winter rainfall (and sometimes snowfall) is associated with large storms that the westerlies steer from west to east. Most summer rainfall occurs during thunderstorms and occasional tropical storms (hurricanes).

Runways

Designator Length Width Surface Rops
01R/19L 2896 46 CON Yes/Yes
9/27 2896 46 ASP Yes/Yes
01L/19R 3292 46 CON Yes/Yes
Airport map: 
Aerial View: 

Accidents and Serious Incidents at or in the vicinity of KMCI

SKYbrary Partners:

Safety knowledge contributed by: